sensor_id;sensor_type;location;lat;lon;timestamp;temperature;humidity
10662;DHT22;5379;51.034;7.006;2022-12-31T00:00:13;17.20;99.90
10662;DHT22;5379;51.034;7.006;2022-12-31T00:02:40;17.20;99.90
10662;DHT22;5379;51.034;7.006;2022-12-31T00:05:07;17.20;99.90
10662;DHT22;5379;51.034;7.006;2022-12-31T00:07:35;17.30;99.90
10662;DHT22;5379;51.034;7.006;2022-12-31T00:10:05;17.30;99.90
10662;DHT22;5379;51.034;7.006;2022-12-31T00:12:33;17.30;99.90
10662;DHT22;5379;51.034;7.006;2022-12-31T00:15:00;17.40;99.90
10662;DHT22;5379;51.034;7.006;2022-12-31T00:17:27;17.40;99.90
10662;DHT22;5379;51.034;7.006;2022-12-31T00:19:54;17.30;99.90
10662;DHT22;5379;51.034;7.006;2022-12-31T00:22:21;17.40;99.90
10662;DHT22;5379;51.034;7.006;2022-12-31T00:24:49;17.40;99.90
10662;DHT22;5379;51.034;7.006;2022-12-31T00:27:18;17.50;99.90
10662;DHT22;5379;51.034;7.006;2022-12-31T00:29:46;17.50;99.90
10662;DHT22;5379;51.034;7.006;2022-12-31T00:32:13;17.50;99.90
10662;DHT22;5379;51.034;7.006;2022-12-31T00:34:40;17.50;99.90
10662;DHT22;5379;51.034;7.006;2022-12-31T00:37:07;17.50;99.90
10662;DHT22;5379;51.034;7.006;2022-12-31T00:39:34;17.40;99.90
10662;DHT22;5379;51.034;7.006;2022-12-31T00:42:01;17.60;99.90
10662;DHT22;5379;51.034;7.006;2022-12-31T00:44:30;17.60;99.90
10662;DHT22;5379;51.034;7.006;2022-12-31T00:46:57;17.60;99.90
10662;DHT22;5379;51.034;7.006;2022-12-31T00:49:24;17.60;99.90
10662;DHT22;5379;51.034;7.006;2022-12-31T00:51:51;17.70;99.90
10662;DHT22;5379;51.034;7.006;2022-12-31T00:54:18;17.70;99.90
10662;DHT22;5379;51.034;7.006;2022-12-31T00:56:45;17.70;99.90
10662;DHT22;5379;51.034;7.006;2022-12-31T00:59:12;17.70;99.90
10662;DHT22;5379;51.034;7.006;2022-12-31T01:01:41;17.80;99.90
10662;DHT22;5379;51.034;7.006;2022-12-31T01:04:11;17.80;99.90
10662;DHT22;5379;51.034;7.006;2022-12-31T01:06:38;17.80;99.90
10662;DHT22;5379;51.034;7.006;2022-12-31T01:09:06;17.80;99.90
10662;DHT22;5379;51.034;7.006;2022-12-31T01:11:34;17.80;99.90
10662;DHT22;5379;51.034;7.006;2022-12-31T01:14:03;17.80;99.90
10662;DHT22;5379;51.034;7.006;2022-12-31T01:16:32;17.80;99.90
10662;DHT22;5379;51.034;7.006;2022-12-31T01:19:03;17.80;99.90
10662;DHT22;5379;51.034;7.006;2022-12-31T01:21:31;17.80;99.90
10662;DHT22;5379;51.034;7.006;2022-12-31T01:23:59;17.90;99.90
10662;DHT22;5379;51.034;7.006;2022-12-31T01:26:26;18.00;99.90
10662;DHT22;5379;51.034;7.006;2022-12-31T01:28:53;18.10;99.90
10662;DHT22;5379;51.034;7.006;2022-12-31T05:32:57;21.10;99.90
10662;DHT22;5379;51.034;7.006;2022-12-31T05:35:25;21.00;99.90
10662;DHT22;5379;51.034;7.006;2022-12-31T05:37:52;21.00;99.90
10662;DHT22;5379;51.034;7.006;2022-12-31T05:40:19;21.10;99.90
10662;DHT22;5379;51.034;7.006;2022-12-31T05:42:46;21.10;99.90
10662;DHT22;5379;51.034;7.006;2022-12-31T05:45:13;21.10;99.90
10662;DHT22;5379;51.034;7.006;2022-12-31T05:47:40;20.90;99.90
10662;DHT22;5379;51.034;7.006;2022-12-31T05:50:11;20.80;99.90
10662;DHT22;5379;51.034;7.006;2022-12-31T05:52:40;20.90;99.90
10662;DHT22;5379;51.034;7.006;2022-12-31T05:55:07;20.50;99.90
10662;DHT22;5379;51.034;7.006;2022-12-31T05:57:34;20.50;99.90
10662;DHT22;5379;51.034;7.006;2022-12-31T06:00:02;20.30;99.90
10662;DHT22;5379;51.034;7.006;2022-12-31T06:02:30;20.40;99.90
10662;DHT22;5379;51.034;7.006;2022-12-31T06:04:57;20.30;99.90
10662;DHT22;5379;51.034;7.006;2022-12-31T06:07:25;20.30;99.90
10662;DHT22;5379;51.034;7.006;2022-12-31T06:09:52;20.50;99.90
10662;DHT22;5379;51.034;7.006;2022-12-31T06:12:19;20.60;99.90
10662;DHT22;5379;51.034;7.006;2022-12-31T06:14:46;20.60;99.90
10662;DHT22;5379;51.034;7.006;2022-12-31T06:17:13;20.80;99.90
10662;DHT22;5379;51.034;7.006;2022-12-31T06:19:40;21.00;99.90
10662;DHT22;5379;51.034;7.006;2022-12-31T06:22:07;20.80;99.90
10662;DHT22;5379;51.034;7.006;2022-12-31T06:24:35;21.00;99.90
10662;DHT22;5379;51.034;7.006;2022-12-31T06:27:02;21.00;99.90
10662;DHT22;5379;51.034;7.006;2022-12-31T06:29:29;21.00;99.90
10662;DHT22;5379;51.034;7.006;2022-12-31T06:31:56;21.10;99.90
10662;DHT22;5379;51.034;7.006;2022-12-31T06:34:23;21.20;99.90
10662;DHT22;5379;51.034;7.006;2022-12-31T06:36:50;21.40;99.90
10662;DHT22;5379;51.034;7.006;2022-12-31T06:39:17;21.40;99.90
10662;DHT22;5379;51.034;7.006;2022-12-31T06:41:45;21.40;99.90
10662;DHT22;5379;51.034;7.006;2022-12-31T06:44:12;21.20;99.90
10662;DHT22;5379;51.034;7.006;2022-12-31T06:46:40;21.50;99.90
10662;DHT22;5379;51.034;7.006;2022-12-31T06:49:07;21.60;99.90
10662;DHT22;5379;51.034;7.006;2022-12-31T06:51:34;21.50;99.90
10662;DHT22;5379;51.034;7.006;2022-12-31T06:54:01;21.50;99.90
10662;DHT22;5379;51.034;7.006;2022-12-31T06:56:28;21.50;99.90
10662;DHT22;5379;51.034;7.006;2022-12-31T06:58:57;21.40;99.90
10662;DHT22;5379;51.034;7.006;2022-12-31T07:01:36;21.30;99.90
10662;DHT22;5379;51.034;7.006;2022-12-31T07:04:23;21.40;99.90
10662;DHT22;5379;51.034;7.006;2022-12-31T07:06:53;21.40;99.90
10662;DHT22;5379;51.034;7.006;2022-12-31T07:09:28;21.40;99.90
10662;DHT22;5379;51.034;7.006;2022-12-31T07:12:03;21.30;99.90
10662;DHT22;5379;51.034;7.006;2022-12-31T07:14:37;21.30;99.90
10662;DHT22;5379;51.034;7.006;2022-12-31T07:17:13;21.30;99.90
10662;DHT22;5379;51.034;7.006;2022-12-31T07:19:48;21.20;99.90
10662;DHT22;5379;51.034;7.006;2022-12-31T07:22:19;21.10;99.90
10662;DHT22;5379;51.034;7.006;2022-12-31T07:24:47;21.10;99.90
10662;DHT22;5379;51.034;7.006;2022-12-31T07:27:26;21.30;99.90
10662;DHT22;5379;51.034;7.006;2022-12-31T07:30:03;21.40;99.90
10662;DHT22;5379;51.034;7.006;2022-12-31T07:32:52;21.50;99.90
10662;DHT22;5379;51.034;7.006;2022-12-31T07:35:28;21.40;99.90
10662;DHT22;5379;51.034;7.006;2022-12-31T07:38:03;21.20;99.90
10662;DHT22;5379;51.034;7.006;2022-12-31T07:40:37;21.00;99.90
10662;DHT22;5379;51.034;7.006;2022-12-31T07:43:20;21.20;99.90
10662;DHT22;5379;51.034;7.006;2022-12-31T07:45:57;21.40;99.90
10662;DHT22;5379;51.034;7.006;2022-12-31T07:48:28;21.50;99.90
10662;DHT22;5379;51.034;7.006;2022-12-31T07:50:56;21.70;99.90
10662;DHT22;5379;51.034;7.006;2022-12-31T07:53:24;21.80;99.90
10662;DHT22;5379;51.034;7.006;2022-12-31T07:55:54;21.80;99.90
10662;DHT22;5379;51.034;7.006;2022-12-31T07:58:24;21.70;99.90
10662;DHT22;5379;51.034;7.006;2022-12-31T08:00:57;21.50;99.90
10662;DHT22;5379;51.034;7.006;2022-12-31T08:03:40;21.50;99.90
10662;DHT22;5379;51.034;7.006;2022-12-31T08:06:11;21.60;99.90
10662;DHT22;5379;51.034;7.006;2022-12-31T08:08:48;21.60;99.90
10662;DHT22;5379;51.034;7.006;2022-12-31T08:11:21;21.30;99.90
10662;DHT22;5379;51.034;7.006;2022-12-31T08:13:53;21.40;99.90
10662;DHT22;5379;51.034;7.006;2022-12-31T08:16:23;21.40;99.90
10662;DHT22;5379;51.034;7.006;2022-12-31T08:18:51;21.60;99.90
10662;DHT22;5379;51.034;7.006;2022-12-31T08:21:25;21.40;99.90
10662;DHT22;5379;51.034;7.006;2022-12-31T08:24:01;21.20;99.90
10662;DHT22;5379;51.034;7.006;2022-12-31T08:26:34;21.10;99.90
10662;DHT22;5379;51.034;7.006;2022-12-31T08:29:13;21.00;99.90
10662;DHT22;5379;51.034;7.006;2022-12-31T08:31:54;21.40;99.90
10662;DHT22;5379;51.034;7.006;2022-12-31T08:34:28;21.60;99.90
10662;DHT22;5379;51.034;7.006;2022-12-31T08:37:03;21.60;99.90
10662;DHT22;5379;51.034;7.006;2022-12-31T08:39:44;21.70;99.90
10662;DHT22;5379;51.034;7.006;2022-12-31T08:42:21;21.70;99.90
10662;DHT22;5379;51.034;7.006;2022-12-31T08:44:56;21.80;99.90
10662;DHT22;5379;51.034;7.006;2022-12-31T08:47:32;21.90;99.90
10662;DHT22;5379;51.034;7.006;2022-12-31T08:50:02;21.90;99.90
10662;DHT22;5379;51.034;7.006;2022-12-31T08:52:30;21.80;99.90
10662;DHT22;5379;51.034;7.006;2022-12-31T08:54:57;21.50;99.90
10662;DHT22;5379;51.034;7.006;2022-12-31T08:57:30;21.60;99.90
10662;DHT22;5379;51.034;7.006;2022-12-31T09:00:04;21.60;99.90
10662;DHT22;5379;51.034;7.006;2022-12-31T09:05:25;21.70;99.90
10662;DHT22;5379;51.034;7.006;2022-12-31T09:08:12;21.60;99.90
10662;DHT22;5379;51.034;7.006;2022-12-31T09:10:47;21.80;99.90
10662;DHT22;5379;51.034;7.006;2022-12-31T09:13:24;21.80;99.90
10662;DHT22;5379;51.034;7.006;2022-12-31T09:16:00;21.70;99.90
10662;DHT22;5379;51.034;7.006;2022-12-31T09:18:30;21.50;99.90
10662;DHT22;5379;51.034;7.006;2022-12-31T09:21:00;21.50;99.90
10662;DHT22;5379;51.034;7.006;2022-12-31T09:23:27;21.50;99.90
10662;DHT22;5379;51.034;7.006;2022-12-31T09:26:00;21.50;99.90
10662;DHT22;5379;51.034;7.006;2022-12-31T09:28:38;21.50;99.90
10662;DHT22;5379;51.034;7.006;2022-12-31T09:31:12;21.50;99.90
10662;DHT22;5379;51.034;7.006;2022-12-31T09:33:49;21.70;99.90
10662;DHT22;5379;51.034;7.006;2022-12-31T09:36:21;21.60;99.90
10662;DHT22;5379;51.034;7.006;2022-12-31T09:38:53;21.60;99.90
10662;DHT22;5379;51.034;7.006;2022-12-31T09:41:48;21.50;99.90
10662;DHT22;5379;51.034;7.006;2022-12-31T09:44:39;21.50;99.90
10662;DHT22;5379;51.034;7.006;2022-12-31T09:47:38;21.20;99.90
10662;DHT22;5379;51.034;7.006;2022-12-31T09:50:31;21.30;99.90
10662;DHT22;5379;51.034;7.006;2022-12-31T09:53:25;20.80;99.90
10662;DHT22;5379;51.034;7.006;2022-12-31T09:55:56;20.70;99.90
10662;DHT22;5379;51.034;7.006;2022-12-31T09:58:37;20.80;99.90
10662;DHT22;5379;51.034;7.006;2022-12-31T10:01:15;21.10;99.90
10662;DHT22;5379;51.034;7.006;2022-12-31T10:04:12;21.20;99.90
10662;DHT22;5379;51.034;7.006;2022-12-31T10:07:00;21.40;99.90
10662;DHT22;5379;51.034;7.006;2022-12-31T10:09:45;21.10;99.90
10662;DHT22;5379;51.034;7.006;2022-12-31T10:18:45;21.00;99.90
10662;DHT22;5379;51.034;7.006;2022-12-31T10:21:27;20.70;99.90
10662;DHT22;5379;51.034;7.006;2022-12-31T10:24:22;20.60;99.90
10662;DHT22;5379;51.034;7.006;2022-12-31T10:27:03;20.60;99.90
10662;DHT22;5379;51.034;7.006;2022-12-31T10:29:44;20.90;99.90
10662;DHT22;5379;51.034;7.006;2022-12-31T10:32:18;20.80;99.90
10662;DHT22;5379;51.034;7.006;2022-12-31T10:34:53;20.80;99.90
10662;DHT22;5379;51.034;7.006;2022-12-31T10:37:23;20.90;99.90
10662;DHT22;5379;51.034;7.006;2022-12-31T10:40:06;21.00;99.90
10662;DHT22;5379;51.034;7.006;2022-12-31T10:45:56;20.90;99.90
10662;DHT22;5379;51.034;7.006;2022-12-31T10:52:00;21.30;99.90
10662;DHT22;5379;51.034;7.006;2022-12-31T10:54:49;21.20;99.90
10662;DHT22;5379;51.034;7.006;2022-12-31T10:58:01;21.40;99.90
10662;DHT22;5379;51.034;7.006;2022-12-31T11:00:39;21.70;99.90
10662;DHT22;5379;51.034;7.006;2022-12-31T11:09:59;21.60;99.90
10662;DHT22;5379;51.034;7.006;2022-12-31T11:15:41;21.30;99.90
10662;DHT22;5379;51.034;7.006;2022-12-31T11:18:22;21.20;99.90
10662;DHT22;5379;51.034;7.006;2022-12-31T11:21:11;21.40;99.90
10662;DHT22;5379;51.034;7.006;2022-12-31T11:23:45;21.60;99.90
10662;DHT22;5379;51.034;7.006;2022-12-31T11:26:25;21.50;99.90
10662;DHT22;5379;51.034;7.006;2022-12-31T11:29:17;21.40;99.90
10662;DHT22;5379;51.034;7.006;2022-12-31T11:32:08;21.50;99.90
10662;DHT22;5379;51.034;7.006;2022-12-31T11:38:01;21.70;99.90
10662;DHT22;5379;51.034;7.006;2022-12-31T11:40:49;21.50;99.90
10662;DHT22;5379;51.034;7.006;2022-12-31T11:43:29;21.30;99.90
10662;DHT22;5379;51.034;7.006;2022-12-31T11:49:23;21.00;99.90
10662;DHT22;5379;51.034;7.006;2022-12-31T11:55:01;20.60;99.90
10662;DHT22;5379;51.034;7.006;2022-12-31T11:57:34;20.80;99.90
10662;DHT22;5379;51.034;7.006;2022-12-31T12:00:11;20.80;99.90
10662;DHT22;5379;51.034;7.006;2022-12-31T12:02:42;20.90;99.90
10662;DHT22;5379;51.034;7.006;2022-12-31T12:05:16;21.10;99.90
10662;DHT22;5379;51.034;7.006;2022-12-31T12:07:43;21.30;99.90
10662;DHT22;5379;51.034;7.006;2022-12-31T12:10:21;21.20;99.90
10662;DHT22;5379;51.034;7.006;2022-12-31T12:12:49;21.40;99.90
10662;DHT22;5379;51.034;7.006;2022-12-31T12:15:20;21.40;99.90
10662;DHT22;5379;51.034;7.006;2022-12-31T12:17:51;21.40;99.90
10662;DHT22;5379;51.034;7.006;2022-12-31T12:20:29;21.40;99.90
10662;DHT22;5379;51.034;7.006;2022-12-31T12:23:00;21.40;99.90
10662;DHT22;5379;51.034;7.006;2022-12-31T12:25:37;21.40;99.90
10662;DHT22;5379;51.034;7.006;2022-12-31T12:28:17;21.40;99.90
10662;DHT22;5379;51.034;7.006;2022-12-31T12:30:45;21.10;99.90
10662;DHT22;5379;51.034;7.006;2022-12-31T12:33:16;21.10;99.90
10662;DHT22;5379;51.034;7.006;2022-12-31T12:35:45;21.20;99.90
10662;DHT22;5379;51.034;7.006;2022-12-31T12:38:14;21.20;99.90
10662;DHT22;5379;51.034;7.006;2022-12-31T12:40:52;21.30;99.90
10662;DHT22;5379;51.034;7.006;2022-12-31T12:43:23;21.30;99.90
10662;DHT22;5379;51.034;7.006;2022-12-31T12:45:52;21.40;99.90
10662;DHT22;5379;51.034;7.006;2022-12-31T12:48:28;21.40;99.90
10662;DHT22;5379;51.034;7.006;2022-12-31T12:50:59;21.50;99.90
10662;DHT22;5379;51.034;7.006;2022-12-31T12:53:42;21.60;99.90
10662;DHT22;5379;51.034;7.006;2022-12-31T12:56:18;21.60;99.90
10662;DHT22;5379;51.034;7.006;2022-12-31T12:59:13;21.50;99.90
10662;DHT22;5379;51.034;7.006;2022-12-31T13:01:48;21.50;99.90
10662;DHT22;5379;51.034;7.006;2022-12-31T13:04:46;21.50;99.90
10662;DHT22;5379;51.034;7.006;2022-12-31T13:07:27;21.20;99.90
10662;DHT22;5379;51.034;7.006;2022-12-31T13:12:53;21.00;99.90
10662;DHT22;5379;51.034;7.006;2022-12-31T13:15:29;20.70;99.90
10662;DHT22;5379;51.034;7.006;2022-12-31T13:18:06;20.50;99.90
10662;DHT22;5379;51.034;7.006;2022-12-31T13:20:40;20.30;99.90
10662;DHT22;5379;51.034;7.006;2022-12-31T13:23:15;20.40;99.90
10662;DHT22;5379;51.034;7.006;2022-12-31T13:25:59;20.50;99.90
10662;DHT22;5379;51.034;7.006;2022-12-31T13:28:30;20.30;99.90
10662;DHT22;5379;51.034;7.006;2022-12-31T13:30:59;20.30;99.90
10662;DHT22;5379;51.034;7.006;2022-12-31T13:33:30;20.10;99.90
10662;DHT22;5379;51.034;7.006;2022-12-31T13:35:59;20.10;99.90
10662;DHT22;5379;51.034;7.006;2022-12-31T13:38:31;20.20;99.90
10662;DHT22;5379;51.034;7.006;2022-12-31T13:41:03;20.10;99.90
10662;DHT22;5379;51.034;7.006;2022-12-31T13:43:37;20.10;99.90
10662;DHT22;5379;51.034;7.006;2022-12-31T13:46:12;20.30;99.90
10662;DHT22;5379;51.034;7.006;2022-12-31T13:48:47;20.40;99.90
10662;DHT22;5379;51.034;7.006;2022-12-31T13:51:26;20.80;99.90
10662;DHT22;5379;51.034;7.006;2022-12-31T13:54:01;21.00;99.90
10662;DHT22;5379;51.034;7.006;2022-12-31T13:56:34;21.30;99.90
10662;DHT22;5379;51.034;7.006;2022-12-31T13:59:05;21.60;99.90
10662;DHT22;5379;51.034;7.006;2022-12-31T14:01:37;21.50;99.90
10662;DHT22;5379;51.034;7.006;2022-12-31T14:04:11;21.60;99.90
10662;DHT22;5379;51.034;7.006;2022-12-31T14:06:43;21.90;99.90
10662;DHT22;5379;51.034;7.006;2022-12-31T14:09:18;21.90;99.90
10662;DHT22;5379;51.034;7.006;2022-12-31T14:14:56;21.80;99.90
10662;DHT22;5379;51.034;7.006;2022-12-31T14:17:30;21.70;99.90
10662;DHT22;5379;51.034;7.006;2022-12-31T14:20:10;21.60;99.90
10662;DHT22;5379;51.034;7.006;2022-12-31T14:22:48;21.50;99.90
10662;DHT22;5379;51.034;7.006;2022-12-31T14:25:21;21.60;99.90
10662;DHT22;5379;51.034;7.006;2022-12-31T14:27:51;21.90;99.90
10662;DHT22;5379;51.034;7.006;2022-12-31T14:30:20;22.00;99.90
10662;DHT22;5379;51.034;7.006;2022-12-31T14:33:22;22.10;99.90
10662;DHT22;5379;51.034;7.006;2022-12-31T14:36:05;21.90;99.90
10662;DHT22;5379;51.034;7.006;2022-12-31T14:38:43;21.80;99.90
10662;DHT22;5379;51.034;7.006;2022-12-31T14:41:25;21.70;99.90
10662;DHT22;5379;51.034;7.006;2022-12-31T14:44:00;21.70;99.90
10662;DHT22;5379;51.034;7.006;2022-12-31T14:46:34;21.80;99.90
10662;DHT22;5379;51.034;7.006;2022-12-31T14:49:15;21.90;99.90
10662;DHT22;5379;51.034;7.006;2022-12-31T14:51:46;21.90;99.90
10662;DHT22;5379;51.034;7.006;2022-12-31T14:54:25;21.90;99.90
10662;DHT22;5379;51.034;7.006;2022-12-31T14:56:54;21.90;99.90
10662;DHT22;5379;51.034;7.006;2022-12-31T14:59:26;22.00;99.90
10662;DHT22;5379;51.034;7.006;2022-12-31T15:01:54;22.00;99.90
10662;DHT22;5379;51.034;7.006;2022-12-31T15:04:30;22.00;99.90
10662;DHT22;5379;51.034;7.006;2022-12-31T15:07:06;22.10;99.90
10662;DHT22;5379;51.034;7.006;2022-12-31T15:10:07;22.20;99.90
10662;DHT22;5379;51.034;7.006;2022-12-31T15:12:55;22.20;99.90
10662;DHT22;5379;51.034;7.006;2022-12-31T15:18:48;22.10;99.90
10662;DHT22;5379;51.034;7.006;2022-12-31T15:21:39;21.90;99.90
10662;DHT22;5379;51.034;7.006;2022-12-31T15:24:18;21.80;99.90
10662;DHT22;5379;51.034;7.006;2022-12-31T15:26:48;21.60;99.90
10662;DHT22;5379;51.034;7.006;2022-12-31T15:29:27;21.80;99.90
10662;DHT22;5379;51.034;7.006;2022-12-31T15:31:57;21.80;99.90
10662;DHT22;5379;51.034;7.006;2022-12-31T15:34:27;21.90;99.90
10662;DHT22;5379;51.034;7.006;2022-12-31T15:36:57;21.70;99.90
10662;DHT22;5379;51.034;7.006;2022-12-31T15:39:35;21.70;99.90
10662;DHT22;5379;51.034;7.006;2022-12-31T15:42:03;21.60;99.90
10662;DHT22;5379;51.034;7.006;2022-12-31T15:44:39;21.80;99.90
10662;DHT22;5379;51.034;7.006;2022-12-31T15:47:14;21.90;99.90
10662;DHT22;5379;51.034;7.006;2022-12-31T15:49:45;21.80;99.90
10662;DHT22;5379;51.034;7.006;2022-12-31T15:52:17;21.70;99.90
10662;DHT22;5379;51.034;7.006;2022-12-31T15:54:48;21.60;99.90
10662;DHT22;5379;51.034;7.006;2022-12-31T15:57:18;21.70;99.90
10662;DHT22;5379;51.034;7.006;2022-12-31T15:59:46;21.60;99.90
10662;DHT22;5379;51.034;7.006;2022-12-31T16:02:22;21.60;99.90
10662;DHT22;5379;51.034;7.006;2022-12-31T16:04:49;21.70;99.90
10662;DHT22;5379;51.034;7.006;2022-12-31T16:07:17;21.80;99.90
10662;DHT22;5379;51.034;7.006;2022-12-31T16:09:49;21.90;99.90
10662;DHT22;5379;51.034;7.006;2022-12-31T16:12:22;22.00;99.90
10662;DHT22;5379;51.034;7.006;2022-12-31T16:14:53;21.90;99.90
10662;DHT22;5379;51.034;7.006;2022-12-31T16:17:26;21.80;99.90
10662;DHT22;5379;51.034;7.006;2022-12-31T16:19:54;21.80;99.90
10662;DHT22;5379;51.034;7.006;2022-12-31T16:22:25;21.80;99.90
10662;DHT22;5379;51.034;7.006;2022-12-31T16:24:53;21.70;99.90
10662;DHT22;5379;51.034;7.006;2022-12-31T16:27:21;21.60;99.90
10662;DHT22;5379;51.034;7.006;2022-12-31T16:29:56;21.60;99.90
10662;DHT22;5379;51.034;7.006;2022-12-31T16:32:23;21.70;99.90
10662;DHT22;5379;51.034;7.006;2022-12-31T16:34:50;21.70;99.90
10662;DHT22;5379;51.034;7.006;2022-12-31T16:37:20;21.70;99.90
10662;DHT22;5379;51.034;7.006;2022-12-31T16:40:08;21.70;99.90
10662;DHT22;5379;51.034;7.006;2022-12-31T16:42:41;21.50;99.90
10662;DHT22;5379;51.034;7.006;2022-12-31T16:45:32;21.40;99.90
10662;DHT22;5379;51.034;7.006;2022-12-31T16:48:06;21.60;99.90
10662;DHT22;5379;51.034;7.006;2022-12-31T16:50:34;21.60;99.90
10662;DHT22;5379;51.034;7.006;2022-12-31T16:53:04;21.70;99.90
10662;DHT22;5379;51.034;7.006;2022-12-31T16:55:33;21.60;99.90
10662;DHT22;5379;51.034;7.006;2022-12-31T16:58:05;21.40;99.90
10662;DHT22;5379;51.034;7.006;2022-12-31T17:00:36;21.50;99.90
10662;DHT22;5379;51.034;7.006;2022-12-31T17:03:07;21.50;99.90
10662;DHT22;5379;51.034;7.006;2022-12-31T17:05:54;21.50;99.90
10662;DHT22;5379;51.034;7.006;2022-12-31T17:08:23;21.60;99.90
10662;DHT22;5379;51.034;7.006;2022-12-31T17:10:51;21.60;99.90
10662;DHT22;5379;51.034;7.006;2022-12-31T17:13:24;21.60;99.90
10662;DHT22;5379;51.034;7.006;2022-12-31T17:15:55;21.20;99.90
10662;DHT22;5379;51.034;7.006;2022-12-31T17:18:24;21.20;99.90
10662;DHT22;5379;51.034;7.006;2022-12-31T17:20:53;21.10;99.90
10662;DHT22;5379;51.034;7.006;2022-12-31T17:23:24;21.40;99.90
10662;DHT22;5379;51.034;7.006;2022-12-31T17:25:58;21.30;99.90
10662;DHT22;5379;51.034;7.006;2022-12-31T17:28:27;21.40;99.90
10662;DHT22;5379;51.034;7.006;2022-12-31T17:31:00;21.40;99.90
10662;DHT22;5379;51.034;7.006;2022-12-31T17:33:30;21.60;99.90
10662;DHT22;5379;51.034;7.006;2022-12-31T17:36:13;21.50;99.90
10662;DHT22;5379;51.034;7.006;2022-12-31T17:38:40;21.30;99.90
10662;DHT22;5379;51.034;7.006;2022-12-31T17:41:16;21.50;99.90
10662;DHT22;5379;51.034;7.006;2022-12-31T17:43:50;21.40;99.90
10662;DHT22;5379;51.034;7.006;2022-12-31T17:46:21;21.50;99.90
10662;DHT22;5379;51.034;7.006;2022-12-31T17:48:51;21.40;99.90
10662;DHT22;5379;51.034;7.006;2022-12-31T17:51:18;21.60;99.90
10662;DHT22;5379;51.034;7.006;2022-12-31T17:53:45;21.20;99.90
10662;DHT22;5379;51.034;7.006;2022-12-31T17:56:13;21.40;99.60
10662;DHT22;5379;51.034;7.006;2022-12-31T17:58:45;21.50;99.90
10662;DHT22;5379;51.034;7.006;2022-12-31T18:01:15;21.80;99.90
10662;DHT22;5379;51.034;7.006;2022-12-31T18:03:44;21.60;99.90
10662;DHT22;5379;51.034;7.006;2022-12-31T18:06:12;21.70;99.90
10662;DHT22;5379;51.034;7.006;2022-12-31T18:08:40;21.60;99.60
10662;DHT22;5379;51.034;7.006;2022-12-31T18:11:12;21.60;99.90
10662;DHT22;5379;51.034;7.006;2022-12-31T18:13:40;21.50;99.50
10662;DHT22;5379;51.034;7.006;2022-12-31T18:16:07;21.50;99.90
10662;DHT22;5379;51.034;7.006;2022-12-31T18:18:34;21.50;99.70
10662;DHT22;5379;51.034;7.006;2022-12-31T18:21:10;21.40;99.50
10662;DHT22;5379;51.034;7.006;2022-12-31T18:23:41;21.50;99.20
10662;DHT22;5379;51.034;7.006;2022-12-31T18:26:12;21.30;99.40
10662;DHT22;5379;51.034;7.006;2022-12-31T18:28:39;21.30;99.90
10662;DHT22;5379;51.034;7.006;2022-12-31T18:31:11;21.40;99.90
10662;DHT22;5379;51.034;7.006;2022-12-31T18:33:39;21.30;99.50
10662;DHT22;5379;51.034;7.006;2022-12-31T18:36:11;21.30;99.10
10662;DHT22;5379;51.034;7.006;2022-12-31T18:38:38;21.30;99.10
10662;DHT22;5379;51.034;7.006;2022-12-31T18:41:06;21.40;99.30
10662;DHT22;5379;51.034;7.006;2022-12-31T18:43:33;21.30;99.50
10662;DHT22;5379;51.034;7.006;2022-12-31T18:46:01;21.40;98.80
10662;DHT22;5379;51.034;7.006;2022-12-31T18:48:28;21.40;99.10
10662;DHT22;5379;51.034;7.006;2022-12-31T18:50:55;21.40;98.80
10662;DHT22;5379;51.034;7.006;2022-12-31T18:53:23;21.30;99.30
10662;DHT22;5379;51.034;7.006;2022-12-31T18:55:52;21.20;98.60
10662;DHT22;5379;51.034;7.006;2022-12-31T18:58:19;21.00;99.30
10662;DHT22;5379;51.034;7.006;2022-12-31T19:00:47;20.90;99.00
10662;DHT22;5379;51.034;7.006;2022-12-31T19:03:15;21.10;99.30
10662;DHT22;5379;51.034;7.006;2022-12-31T19:05:44;21.00;98.90
10662;DHT22;5379;51.034;7.006;2022-12-31T19:08:14;21.00;98.40
10662;DHT22;5379;51.034;7.006;2022-12-31T19:10:42;20.80;98.70
10662;DHT22;5379;51.034;7.006;2022-12-31T19:13:11;20.70;99.30
10662;DHT22;5379;51.034;7.006;2022-12-31T19:15:41;20.70;99.00
10662;DHT22;5379;51.034;7.006;2022-12-31T19:18:08;20.70;98.70
10662;DHT22;5379;51.034;7.006;2022-12-31T19:20:36;20.90;99.20
10662;DHT22;5379;51.034;7.006;2022-12-31T19:23:04;20.90;98.80
10662;DHT22;5379;51.034;7.006;2022-12-31T19:25:33;20.70;98.90
10662;DHT22;5379;51.034;7.006;2022-12-31T19:28:04;20.90;98.70
10662;DHT22;5379;51.034;7.006;2022-12-31T19:30:33;20.80;98.40
10662;DHT22;5379;51.034;7.006;2022-12-31T19:33:01;20.70;98.60
10662;DHT22;5379;51.034;7.006;2022-12-31T19:35:28;20.80;98.30
10662;DHT22;5379;51.034;7.006;2022-12-31T19:37:55;20.90;98.90
10662;DHT22;5379;51.034;7.006;2022-12-31T19:40:23;21.00;98.90
10662;DHT22;5379;51.034;7.006;2022-12-31T19:42:51;20.90;98.30
10662;DHT22;5379;51.034;7.006;2022-12-31T19:45:22;21.10;98.20
10662;DHT22;5379;51.034;7.006;2022-12-31T19:47:50;21.10;97.90
10662;DHT22;5379;51.034;7.006;2022-12-31T19:50:19;21.00;98.60
10662;DHT22;5379;51.034;7.006;2022-12-31T19:52:48;21.10;98.20
10662;DHT22;5379;51.034;7.006;2022-12-31T19:55:18;20.90;97.90
10662;DHT22;5379;51.034;7.006;2022-12-31T19:57:46;20.80;98.10
10662;DHT22;5379;51.034;7.006;2022-12-31T20:00:15;20.80;97.40
10662;DHT22;5379;51.034;7.006;2022-12-31T20:02:45;21.00;98.00
10662;DHT22;5379;51.034;7.006;2022-12-31T20:05:14;21.00;98.00
10662;DHT22;5379;51.034;7.006;2022-12-31T20:07:41;20.80;97.70
10662;DHT22;5379;51.034;7.006;2022-12-31T20:10:08;20.90;97.60
10662;DHT22;5379;51.034;7.006;2022-12-31T20:12:35;21.00;98.30
10662;DHT22;5379;51.034;7.006;2022-12-31T20:15:03;20.90;98.00
10662;DHT22;5379;51.034;7.006;2022-12-31T20:17:30;20.80;98.60
10662;DHT22;5379;51.034;7.006;2022-12-31T20:19:58;20.80;97.60
10662;DHT22;5379;51.034;7.006;2022-12-31T20:22:25;20.90;97.50
10662;DHT22;5379;51.034;7.006;2022-12-31T20:24:52;20.90;97.30
10662;DHT22;5379;51.034;7.006;2022-12-31T20:27:19;20.80;97.40
10662;DHT22;5379;51.034;7.006;2022-12-31T20:29:46;20.90;97.40
10662;DHT22;5379;51.034;7.006;2022-12-31T20:32:13;20.90;97.40
10662;DHT22;5379;51.034;7.006;2022-12-31T20:34:40;21.10;96.90
10662;DHT22;5379;51.034;7.006;2022-12-31T20:37:09;20.90;96.80
10662;DHT22;5379;51.034;7.006;2022-12-31T20:39:36;20.80;97.90
10662;DHT22;5379;51.034;7.006;2022-12-31T20:42:03;20.90;96.90
10662;DHT22;5379;51.034;7.006;2022-12-31T20:44:30;20.80;97.10
10662;DHT22;5379;51.034;7.006;2022-12-31T20:46:58;20.80;96.40
10662;DHT22;5379;51.034;7.006;2022-12-31T20:49:25;20.70;97.00
10662;DHT22;5379;51.034;7.006;2022-12-31T20:51:52;20.50;97.20
10662;DHT22;5379;51.034;7.006;2022-12-31T20:54:21;20.50;96.50
10662;DHT22;5379;51.034;7.006;2022-12-31T20:56:48;20.50;97.10
10662;DHT22;5379;51.034;7.006;2022-12-31T20:59:14;20.50;97.20
10662;DHT22;5379;51.034;7.006;2022-12-31T21:01:41;20.60;97.60
10662;DHT22;5379;51.034;7.006;2022-12-31T21:04:08;20.50;96.60